createdAt,value
2023-05-07T00:00:38.579Z,95138
2023-05-07T00:04:04.032Z,95140
2023-05-07T00:07:29.017Z,95143
2023-05-07T00:10:54.276Z,95137
2023-05-07T00:14:19.505Z,95141
2023-05-07T00:17:44.743Z,95135
2023-05-07T00:21:10.094Z,95131
2023-05-07T00:24:35.148Z,95135
2023-05-07T00:28:00.367Z,95144
2023-05-07T00:31:25.615Z,95143
2023-05-07T00:34:50.795Z,95138
2023-05-07T00:38:16.364Z,95139
2023-05-07T00:41:41.481Z,95139
2023-05-07T00:45:06.667Z,95148
2023-05-07T00:48:31.867Z,95145
2023-05-07T00:51:57.096Z,95145
2023-05-07T00:55:22.416Z,95139
2023-05-07T00:58:47.568Z,95135
2023-05-07T01:02:12.759Z,95138
2023-05-07T01:05:37.976Z,95139
2023-05-07T01:09:03.185Z,95138
2023-05-07T01:12:28.483Z,95137
2023-05-07T01:15:53.592Z,95138
2023-05-07T01:19:18.820Z,95140
2023-05-07T01:22:44.099Z,95129
2023-05-07T01:26:09.247Z,95133
2023-05-07T01:29:34.576Z,95129
2023-05-07T01:32:59.789Z,95127
2023-05-07T01:36:24.920Z,95132
2023-05-07T01:39:50.105Z,95136
2023-05-07T01:43:15.311Z,95136
2023-05-07T01:46:40.702Z,95136
2023-05-07T01:50:05.741Z,95135
2023-05-07T01:53:30.952Z,95134
2023-05-07T01:56:56.159Z,95137
2023-05-07T02:00:21.381Z,95131
2023-05-07T02:03:46.726Z,95137
2023-05-07T02:07:12.130Z,95141
2023-05-07T02:10:37.321Z,95136
2023-05-07T02:14:02.508Z,95135
2023-05-07T02:17:27.760Z,95136
2023-05-07T02:20:52.940Z,95136
2023-05-07T02:24:18.113Z,95128
2023-05-07T02:27:43.298Z,95132
2023-05-07T02:31:08.585Z,95131
2023-05-07T02:34:33.728Z,95134
2023-05-07T02:37:59.046Z,95125
2023-05-07T02:41:24.180Z,95117
2023-05-07T02:44:49.389Z,95117
2023-05-07T02:48:14.577Z,95120
2023-05-07T02:51:39.771Z,95119
2023-05-07T02:55:05.082Z,95126
2023-05-07T02:58:30.188Z,95129
2023-05-07T03:01:55.397Z,95135
2023-05-07T03:05:20.629Z,95130
2023-05-07T03:08:45.812Z,95134
2023-05-07T03:12:11.052Z,95122
2023-05-07T03:15:36.278Z,95125
2023-05-07T03:19:01.507Z,95130
2023-05-07T03:22:26.651Z,95135
2023-05-07T03:25:51.859Z,95128
2023-05-07T03:29:17.104Z,95126
2023-05-07T03:32:42.295Z,95126
2023-05-07T03:36:07.484Z,95130
2023-05-07T03:39:32.676Z,95124
2023-05-07T03:42:57.881Z,95127
2023-05-07T03:46:23.130Z,95136
2023-05-07T03:49:48.261Z,95137
2023-05-07T03:53:13.460Z,95128
2023-05-07T03:56:38.665Z,95128
2023-05-07T04:00:03.855Z,95135
2023-05-07T04:03:29.242Z,95148
2023-05-07T04:06:54.213Z,95149
2023-05-07T04:10:19.411Z,95147
2023-05-07T04:13:44.581Z,95150
2023-05-07T04:17:09.749Z,95148
2023-05-07T04:20:34.998Z,95149
2023-05-07T04:24:00.174Z,95151
2023-05-07T04:27:25.399Z,95151
2023-05-07T04:30:50.595Z,95155
2023-05-07T04:34:15.776Z,95146
2023-05-07T04:37:41.065Z,95150
2023-05-07T04:41:06.229Z,95148
2023-05-07T04:44:31.318Z,95149
2023-05-07T04:47:56.610Z,95164
2023-05-07T04:51:21.744Z,95169
2023-05-07T04:54:46.975Z,95165
2023-05-07T04:58:12.113Z,95173
2023-05-07T05:01:37.358Z,95174
2023-05-07T05:05:02.516Z,95184
2023-05-07T05:08:27.703Z,95192
2023-05-07T05:11:52.885Z,95206
2023-05-07T05:15:18.036Z,95207
2023-05-07T05:18:43.229Z,95199
2023-05-07T05:22:08.399Z,95192
2023-05-07T05:25:33.574Z,95198
2023-05-07T05:28:58.851Z,95198
2023-05-07T05:32:23.952Z,95206
2023-05-07T05:35:49.097Z,95207
2023-05-07T05:39:14.288Z,95208
2023-05-07T05:42:39.477Z,95209
2023-05-07T05:46:04.883Z,95216
2023-05-07T05:49:29.891Z,95214
2023-05-07T05:52:55.132Z,95213
2023-05-07T05:56:20.331Z,95217
2023-05-07T05:59:45.497Z,95220
2023-05-07T06:03:10.825Z,95221
2023-05-07T06:06:35.903Z,95223
2023-05-07T06:10:01.098Z,95231
2023-05-07T06:13:26.727Z,95224
2023-05-07T06:16:51.524Z,95221
2023-05-07T06:20:16.733Z,95215
2023-05-07T06:23:41.888Z,95220
2023-05-07T06:27:07.062Z,95215
2023-05-07T06:30:32.253Z,95213
2023-05-07T06:33:57.397Z,95224
2023-05-07T06:37:22.667Z,95233
2023-05-07T06:40:47.717Z,95235
2023-05-07T06:44:12.891Z,95236
2023-05-07T06:47:38.062Z,95236
2023-05-07T06:51:03.197Z,95236
2023-05-07T06:54:28.430Z,95241
2023-05-07T06:57:53.470Z,95241
2023-05-07T07:01:18.642Z,95243
2023-05-07T07:04:43.760Z,95241
2023-05-07T07:08:08.856Z,95242
2023-05-07T07:11:34.277Z,95242
2023-05-07T07:14:59.869Z,95245
2023-05-07T07:18:25.018Z,95250
2023-05-07T07:21:50.163Z,95256
2023-05-07T07:25:15.305Z,95254
2023-05-07T07:28:40.577Z,95253
2023-05-07T07:32:05.720Z,95256
2023-05-07T07:35:30.879Z,95259
2023-05-07T07:38:56.051Z,95255
2023-05-07T07:42:21.263Z,95261
2023-05-07T07:45:46.541Z,95263
2023-05-07T07:49:11.581Z,95254
2023-05-07T07:52:36.825Z,95251
2023-05-07T07:56:03.602Z,95253
2023-05-07T07:59:27.288Z,95259
2023-05-07T08:02:52.960Z,95255
2023-05-07T08:06:17.717Z,95256
2023-05-07T08:09:42.926Z,95262
2023-05-07T08:13:08.181Z,95268
2023-05-07T08:16:33.385Z,95274
2023-05-07T08:19:58.718Z,95273
2023-05-07T08:23:23.855Z,95273
2023-05-07T08:26:49.043Z,95272
2023-05-07T08:30:14.256Z,95274
2023-05-07T08:33:39.415Z,95276
2023-05-07T08:37:04.797Z,95276
2023-05-07T08:40:29.784Z,95273
2023-05-07T08:43:55.040Z,95276
2023-05-07T08:47:22.130Z,95286
2023-05-07T08:50:45.326Z,95289
2023-05-07T08:54:10.631Z,95285
2023-05-07T08:57:35.612Z,95286
2023-05-07T09:01:00.792Z,95294
2023-05-07T09:04:25.991Z,95298
2023-05-07T09:07:52.726Z,95294
2023-05-07T09:11:16.449Z,95294
2023-05-07T09:14:41.636Z,95297
2023-05-07T09:18:06.906Z,95300
2023-05-07T09:21:32.100Z,95291
2023-05-07T09:24:57.336Z,95290
2023-05-07T09:28:22.663Z,95287
2023-05-07T09:31:47.854Z,95298
2023-05-07T09:35:13.189Z,95299
2023-05-07T09:38:38.254Z,95289
2023-05-07T09:42:03.565Z,95289
2023-05-07T09:45:28.993Z,95292
2023-05-07T09:48:54.076Z,95287
2023-05-07T09:52:19.376Z,95286
2023-05-07T09:55:44.599Z,95294
2023-05-07T09:59:09.830Z,95293
2023-05-07T10:02:35.217Z,95282
2023-05-07T10:06:00.305Z,95289
2023-05-07T10:09:25.537Z,95289
2023-05-07T10:12:50.850Z,95288
2023-05-07T10:16:16.111Z,95288
2023-05-07T10:19:41.454Z,95277
2023-05-07T10:23:06.563Z,95280
2023-05-07T10:26:31.825Z,95281
2023-05-07T10:29:57.059Z,95278
2023-05-07T10:33:22.248Z,95275
2023-05-07T10:36:47.539Z,95278
2023-05-07T10:40:12.858Z,95288
2023-05-07T10:43:38.116Z,95289
2023-05-07T10:47:03.392Z,95289
2023-05-07T10:50:28.668Z,95283
2023-05-07T10:53:54.023Z,95274
2023-05-07T10:57:19.067Z,95276
2023-05-07T11:00:44.333Z,95277
2023-05-07T11:04:09.609Z,95276
2023-05-07T11:07:34.831Z,95267
2023-05-07T11:11:00.161Z,95268
2023-05-07T11:14:25.268Z,95271
2023-05-07T11:17:50.486Z,95271
2023-05-07T11:21:15.711Z,95278
2023-05-07T11:24:40.978Z,95273
2023-05-07T11:28:06.220Z,95282
2023-05-07T11:31:31.802Z,95267
2023-05-07T11:34:57.778Z,95264
2023-05-07T11:38:23.009Z,95260
2023-05-07T11:41:48.237Z,95270
2023-05-07T11:45:13.728Z,95283
2023-05-07T11:48:38.759Z,95282
2023-05-07T11:52:06.096Z,95277
2023-05-07T11:55:29.185Z,95276
2023-05-07T11:58:54.418Z,95278
2023-05-07T12:02:19.752Z,95269
2023-05-07T12:05:44.878Z,95267
2023-05-07T12:09:10.095Z,95273
2023-05-07T12:12:35.321Z,95275
2023-05-07T12:16:00.506Z,95267
2023-05-07T12:19:25.755Z,95261
2023-05-07T12:22:50.932Z,95265
2023-05-07T12:26:16.130Z,95264
2023-05-07T12:29:41.360Z,95272
2023-05-07T12:33:06.574Z,95267
2023-05-07T12:36:31.824Z,95275
2023-05-07T12:39:57.051Z,95276
2023-05-07T12:43:22.273Z,95279
2023-05-07T12:46:47.617Z,95280
2023-05-07T12:50:12.881Z,95285
2023-05-07T12:53:38.157Z,95277
2023-05-07T12:57:03.349Z,95280
2023-05-07T13:00:28.619Z,95278
2023-05-07T13:03:54.041Z,95278
2023-05-07T13:07:19.191Z,95273
2023-05-07T13:10:44.418Z,95274
2023-05-07T13:14:09.692Z,95278
2023-05-07T13:17:34.934Z,95279
2023-05-07T13:21:00.179Z,95271
2023-05-07T13:24:25.513Z,95273
2023-05-07T13:27:59.676Z,95271
2023-05-07T13:31:15.948Z,95268
2023-05-07T13:34:41.135Z,95271
2023-05-07T13:38:06.333Z,95272
2023-05-07T13:41:31.560Z,95269
2023-05-07T13:44:56.853Z,95261
2023-05-07T13:48:22.147Z,95259
2023-05-07T13:51:47.376Z,95263
2023-05-07T13:55:12.577Z,95264
2023-05-07T13:58:40.232Z,95256
2023-05-07T14:02:02.995Z,95257
2023-05-07T14:05:28.115Z,95257
2023-05-07T14:08:53.298Z,95255
2023-05-07T14:12:18.523Z,95251
2023-05-07T14:15:43.667Z,95241
2023-05-07T14:19:08.827Z,95233
2023-05-07T14:22:33.981Z,95226
2023-05-07T14:25:59.139Z,95229
2023-05-07T14:29:24.487Z,95230
2023-05-07T14:32:49.517Z,95229
2023-05-07T14:36:14.661Z,95229
2023-05-07T14:39:39.808Z,95234
2023-05-07T14:43:05.016Z,95235
2023-05-07T14:46:30.247Z,95239
2023-05-07T14:49:55.413Z,95236
2023-05-07T14:53:20.702Z,95237
2023-05-07T14:56:45.879Z,95248
2023-05-07T15:00:11.105Z,95247
2023-05-07T15:03:36.726Z,95249
2023-05-07T15:07:01.895Z,95258
2023-05-07T15:10:27.095Z,95266
2023-05-07T15:46:57.228Z,95262
2023-05-07T15:50:22.409Z,95272
2023-05-07T15:53:47.627Z,95282
2023-05-07T15:57:12.853Z,95280
2023-05-07T16:00:38.091Z,95277
2023-05-07T16:04:03.315Z,95272
2023-05-07T16:07:28.481Z,95275
2023-05-07T16:10:53.687Z,95277
2023-05-07T16:14:18.821Z,95282
2023-05-07T16:17:44.086Z,95285
2023-05-07T16:21:09.225Z,95301
2023-05-07T16:24:34.424Z,95300
2023-05-07T16:27:59.624Z,95302
2023-05-07T16:31:24.866Z,95297
2023-05-07T16:34:49.989Z,95302
2023-05-07T16:38:15.195Z,95308
2023-05-07T16:41:40.381Z,95301
2023-05-07T16:45:05.648Z,95307
2023-05-07T16:48:30.834Z,95313
2023-05-07T16:51:56.013Z,95315
2023-05-07T16:55:21.207Z,95306
2023-05-07T16:58:46.390Z,95310
2023-05-07T17:02:11.743Z,95310
2023-05-07T17:05:36.741Z,95298
2023-05-07T17:09:01.963Z,95300
2023-05-07T17:12:27.267Z,95298
2023-05-07T17:15:52.455Z,95296
2023-05-07T17:19:17.632Z,95307
2023-05-07T17:22:42.871Z,95308
2023-05-07T17:26:08.158Z,95310
2023-05-07T17:29:33.404Z,95312
2023-05-07T17:33:06.455Z,95329
2023-05-07T17:36:23.860Z,95332
2023-05-07T17:39:49.054Z,95338
2023-05-07T17:43:14.265Z,95333
2023-05-07T17:46:39.565Z,95334
2023-05-07T17:50:04.765Z,95335
2023-05-07T17:53:29.945Z,95328
2023-05-07T17:56:55.129Z,95334
2023-05-07T18:00:20.390Z,95341
2023-05-07T18:03:45.718Z,95341
2023-05-07T18:07:10.767Z,95338
2023-05-07T18:10:35.995Z,95341
2023-05-07T18:14:01.565Z,95342
2023-05-07T18:17:26.858Z,95344
2023-05-07T18:20:51.922Z,95350
2023-05-07T18:24:17.004Z,95360
2023-05-07T18:27:42.143Z,95362
2023-05-07T18:31:07.298Z,95365
2023-05-07T18:34:32.466Z,95360
2023-05-07T18:37:57.672Z,95359
2023-05-07T18:41:22.852Z,95368
2023-05-07T18:44:47.990Z,95364
2023-05-07T18:48:13.132Z,95364
2023-05-07T18:51:38.280Z,95363
2023-05-07T18:55:03.465Z,95366
2023-05-07T18:58:28.585Z,95364
2023-05-07T19:01:53.836Z,95374
2023-05-07T19:05:18.895Z,95373
2023-05-07T19:08:44.051Z,95378
2023-05-07T19:12:09.237Z,95376
2023-05-07T19:15:34.362Z,95376
2023-05-07T19:18:59.506Z,95374
2023-05-07T19:22:24.634Z,95383
2023-05-07T19:25:49.759Z,95383
2023-05-07T19:29:17.774Z,95383
2023-05-07T19:32:40.039Z,95389
2023-05-07T19:36:05.189Z,95399
2023-05-07T19:39:30.322Z,95402
2023-05-07T19:42:55.464Z,95403
2023-05-07T19:46:20.714Z,95403
2023-05-07T19:49:45.791Z,95409
2023-05-07T19:53:10.947Z,95417
2023-05-07T19:56:36.094Z,95417
2023-05-07T20:00:01.278Z,95419
2023-05-07T20:03:26.501Z,95421
2023-05-07T20:06:51.538Z,95422
2023-05-07T20:10:16.705Z,95412
2023-05-07T20:13:41.872Z,95417
2023-05-07T20:17:07.013Z,95424
2023-05-07T20:20:32.244Z,95424
2023-05-07T20:23:57.325Z,95419
2023-05-07T20:27:22.505Z,95423
2023-05-07T20:30:47.624Z,95419
2023-05-07T20:34:12.779Z,95418
2023-05-07T20:37:37.958Z,95420
2023-05-07T20:41:03.091Z,95414
2023-05-07T20:44:28.261Z,95418
2023-05-07T20:47:53.437Z,95427
2023-05-07T20:51:18.640Z,95430
2023-05-07T20:54:43.780Z,95434
2023-05-07T20:58:08.892Z,95438
2023-05-07T21:01:34.110Z,95440
2023-05-07T21:04:59.238Z,95439
2023-05-07T21:08:24.393Z,95444
2023-05-07T21:11:49.621Z,95442
2023-05-07T21:15:14.748Z,95445
2023-05-07T21:18:39.908Z,95444
2023-05-07T21:22:05.071Z,95446
2023-05-07T21:25:30.230Z,95450
2023-05-07T21:28:55.426Z,95449
2023-05-07T21:32:20.569Z,95445
2023-05-07T21:35:45.721Z,95450
2023-05-07T21:39:10.852Z,95454
2023-05-07T21:42:35.994Z,95457
2023-05-07T21:46:01.219Z,95455
2023-05-07T21:49:26.310Z,95453
2023-05-07T21:52:51.444Z,95457
2023-05-07T21:56:16.616Z,95455
2023-05-07T21:59:41.786Z,95459
2023-05-07T22:03:06.983Z,95461
2023-05-07T22:06:32.073Z,95459
2023-05-07T22:09:57.233Z,95463
2023-05-07T22:13:22.458Z,95461
2023-05-07T22:16:47.615Z,95473
2023-05-07T22:20:13.118Z,95470
2023-05-07T22:23:37.815Z,95472
2023-05-07T22:27:02.954Z,95473
2023-05-07T22:30:28.126Z,95479
2023-05-07T22:33:53.264Z,95478
2023-05-07T22:37:18.430Z,95478
2023-05-07T22:40:43.554Z,95478
2023-05-07T22:44:08.704Z,95473
2023-05-07T22:47:33.882Z,95469
2023-05-07T22:50:59.064Z,95466
2023-05-07T22:54:25.524Z,95461
2023-05-07T22:57:49.333Z,95459
2023-05-07T23:01:14.668Z,95466
2023-05-07T23:04:39.652Z,95462
2023-05-07T23:08:04.789Z,95457
2023-05-07T23:11:29.975Z,95456
2023-05-07T23:14:55.145Z,95457
2023-05-07T23:18:20.296Z,95456
2023-05-07T23:21:45.458Z,95456
2023-05-07T23:25:10.788Z,95461
2023-05-07T23:28:36.000Z,95459
2023-05-07T23:32:01.136Z,95463
2023-05-07T23:35:26.294Z,95464
2023-05-07T23:38:51.517Z,95460
2023-05-07T23:42:16.660Z,95457
2023-05-07T23:45:41.881Z,95460
2023-05-07T23:49:06.986Z,95453
2023-05-07T23:52:32.167Z,95456
2023-05-07T23:55:57.308Z,95461
2023-05-07T23:59:22.432Z,95462
